createdAt,value
2023-01-18T00:02:05.078Z,97943.08
2023-01-18T00:04:32.162Z,97945.47
2023-01-18T00:07:01.153Z,97941.55
2023-01-18T00:09:28.106Z,97941.77
2023-01-18T00:11:55.454Z,97936.80
2023-01-18T00:14:23.147Z,97936.29
2023-01-18T00:16:50.174Z,97936.64
2023-01-18T00:19:17.827Z,97936.96
2023-01-18T00:21:44.924Z,97938.83
2023-01-18T00:24:16.077Z,97935.58
2023-01-18T00:26:44.528Z,97931.96
2023-01-18T00:29:11.537Z,97929.04
2023-01-18T00:31:39.425Z,97924.61
2023-01-18T00:34:06.391Z,97921.34
2023-01-18T00:36:33.715Z,97921.66
2023-01-18T00:39:01.703Z,97920.45
2023-01-18T00:41:28.997Z,97919.27
2023-01-18T00:43:56.519Z,97915.81
2023-01-18T00:46:25.391Z,97913.23
2023-01-18T00:48:53.750Z,97909.98
2023-01-18T00:51:23.157Z,97908.21
2023-01-18T00:53:50.671Z,97904.40
2023-01-18T00:56:19.971Z,97899.52
2023-01-18T00:58:47.301Z,97900.61
2023-01-18T01:01:15.140Z,97893.34
2023-01-18T01:04:00.123Z,97885.88
2023-01-18T01:06:46.019Z,97884.09
2023-01-18T01:09:15.116Z,97882.63
2023-01-18T01:12:03.468Z,97881.00
2023-01-18T01:14:48.550Z,97874.58
2023-01-18T01:17:33.279Z,97873.30
2023-01-18T01:20:18.276Z,97869.98
2023-01-18T01:23:03.025Z,97867.71
2023-01-18T01:25:47.686Z,97866.52
2023-01-18T01:28:15.828Z,97860.28
2023-01-18T01:30:44.725Z,97858.16
2023-01-18T01:33:11.908Z,97857.34
2023-01-18T01:35:39.408Z,97856.05
2023-01-18T01:38:06.731Z,97854.60
2023-01-18T01:40:33.879Z,97852.91
2023-01-18T01:43:00.987Z,97850.09
2023-01-18T01:45:31.203Z,97853.24
2023-01-18T01:48:00.122Z,97856.04
2023-01-18T01:50:30.946Z,97861.64
2023-01-18T01:52:59.428Z,97862.44
2023-01-18T01:55:31.927Z,97864.27
2023-01-18T01:58:02.547Z,97864.59
2023-01-18T02:00:30.711Z,97860.02
2023-01-18T02:03:01.610Z,97850.30
2023-01-18T02:05:30.860Z,97852.23
2023-01-18T02:08:01.766Z,97853.08
2023-01-18T02:10:29.437Z,97860.59
2023-01-18T02:12:58.230Z,97863.15
2023-01-18T02:15:32.497Z,97860.82
2023-01-18T02:18:17.422Z,97863.82
2023-01-18T02:21:19.813Z,97868.41
2023-01-18T02:24:29.138Z,97874.50
2023-01-18T02:27:12.684Z,97864.80
2023-01-18T02:30:03.915Z,97861.12
2023-01-18T02:33:43.352Z,97861.48
2023-01-18T02:36:12.346Z,97864.40
2023-01-18T02:38:44.529Z,97857.55
2023-01-18T02:41:19.747Z,97861.63
2023-01-18T02:44:06.722Z,97858.03
2023-01-18T02:46:39.006Z,97855.60
2023-01-18T02:49:09.797Z,97858.65
2023-01-18T02:51:37.598Z,97858.82
2023-01-18T02:54:08.076Z,97863.46
2023-01-18T02:56:40.028Z,97860.07
2023-01-18T02:59:13.647Z,97855.81
2023-01-18T03:01:45.616Z,97854.29
2023-01-18T03:04:17.835Z,97852.14
2023-01-18T03:06:49.183Z,97849.50
2023-01-18T03:09:18.814Z,97845.44
2023-01-18T03:11:55.190Z,97836.22
2023-01-18T03:14:32.358Z,97833.00
2023-01-18T03:17:07.217Z,97834.70
2023-01-18T03:20:01.713Z,97827.86
2023-01-18T03:22:49.843Z,97826.43
2023-01-18T03:25:20.900Z,97820.21
2023-01-18T03:28:09.622Z,97817.09
2023-01-18T03:30:55.820Z,97816.98
2023-01-18T03:33:43.637Z,97803.41
2023-01-18T03:36:17.445Z,97798.05
2023-01-18T03:38:46.706Z,97786.34
2023-01-18T03:41:15.781Z,97782.70
2023-01-18T03:43:46.105Z,97775.80
2023-01-18T03:46:17.286Z,97772.30
2023-01-18T03:48:44.327Z,97764.34
2023-01-18T03:51:20.892Z,97763.62
2023-01-18T03:53:57.106Z,97760.52
2023-01-18T03:56:27.548Z,97747.83
2023-01-18T03:58:58.779Z,97744.89
2023-01-18T04:01:27.145Z,97736.64
2023-01-18T04:03:54.800Z,97732.52
2023-01-18T04:06:23.325Z,97726.11
2023-01-18T04:08:50.634Z,97719.23
2023-01-18T04:11:17.683Z,97713.73
2023-01-18T04:13:44.750Z,97702.27
2023-01-18T04:16:11.927Z,97698.13
2023-01-18T04:18:39.298Z,97699.27
2023-01-18T04:21:06.709Z,97699.46
2023-01-18T04:23:33.732Z,97704.58
2023-01-18T04:26:00.777Z,97697.90
2023-01-18T04:28:28.066Z,97704.05
2023-01-18T04:30:56.761Z,97710.40
2023-01-18T04:33:27.035Z,97708.36
2023-01-18T04:35:55.349Z,97708.70
2023-01-18T04:38:23.018Z,97713.17
2023-01-18T04:40:50.379Z,97706.86
2023-01-18T04:43:17.360Z,97709.06
2023-01-18T04:45:46.342Z,97710.08
2023-01-18T04:48:14.081Z,97707.63
2023-01-18T04:50:46.587Z,97704.38
2023-01-18T04:53:13.655Z,97705.58
2023-01-18T04:55:40.989Z,97707.52
2023-01-18T04:58:07.942Z,97710.99
2023-01-18T05:00:35.112Z,97707.29
2023-01-18T05:03:02.667Z,97712.15
2023-01-18T05:05:29.633Z,97711.72
2023-01-18T05:07:56.860Z,97713.52
2023-01-18T05:10:24.128Z,97712.96
2023-01-18T05:12:51.138Z,97712.41
2023-01-18T05:15:19.325Z,97714.60
2023-01-18T05:17:46.482Z,97714.42
2023-01-18T05:20:16.218Z,97710.98
2023-01-18T05:22:43.270Z,97707.35
2023-01-18T05:25:12.602Z,97703.44
2023-01-18T05:27:39.585Z,97703.50
2023-01-18T05:30:08.310Z,97698.94
2023-01-18T05:32:37.869Z,97706.15
2023-01-18T05:35:04.991Z,97703.34
2023-01-18T05:37:32.200Z,97702.72
2023-01-18T05:40:00.130Z,97698.14
2023-01-18T05:42:27.171Z,97689.09
2023-01-18T05:44:54.466Z,97676.98
2023-01-18T05:47:21.850Z,97667.23
2023-01-18T05:49:49.645Z,97663.13
2023-01-18T05:52:17.215Z,97659.73
2023-01-18T05:54:44.232Z,97650.89
2023-01-18T05:57:11.346Z,97641.86
2023-01-18T05:59:38.412Z,97634.54
2023-01-18T06:02:06.680Z,97627.55
2023-01-18T06:04:33.836Z,97625.36
2023-01-18T06:07:01.045Z,97614.12
2023-01-18T06:09:30.169Z,97609.05
2023-01-18T06:11:57.319Z,97606.31
2023-01-18T06:14:24.475Z,97607.52
2023-01-18T06:16:51.659Z,97603.77
2023-01-18T06:19:19.004Z,97599.86
2023-01-18T06:21:47.179Z,97600.44
2023-01-18T06:24:14.851Z,97596.70
2023-01-18T06:26:41.821Z,97590.03
2023-01-18T06:29:09.466Z,97584.96
2023-01-18T06:31:36.557Z,97571.82
2023-01-18T06:34:09.372Z,97559.27
2023-01-18T06:36:36.771Z,97539.92
2023-01-18T06:39:03.833Z,97532.38
2023-01-18T06:41:30.944Z,97523.83
2023-01-18T06:43:58.210Z,97523.66
2023-01-18T06:46:25.321Z,97528.10
2023-01-18T06:48:52.560Z,97554.52
2023-01-18T06:51:20.591Z,97586.51
2023-01-18T06:53:47.641Z,97598.99
2023-01-18T06:56:14.972Z,97585.80
2023-01-18T06:58:42.020Z,97576.80
2023-01-18T07:01:09.971Z,97575.13
2023-01-18T07:03:38.906Z,97571.80
2023-01-18T07:06:07.756Z,97560.91
2023-01-18T07:08:35.614Z,97541.95
2023-01-18T07:11:08.243Z,97530.33
2023-01-18T07:13:35.375Z,97542.42
2023-01-18T07:16:03.300Z,97542.38
2023-01-18T07:18:31.434Z,97544.98
2023-01-18T07:21:03.412Z,97553.20
2023-01-18T07:23:31.795Z,97561.41
2023-01-18T07:26:03.317Z,97573.22
2023-01-18T07:28:30.887Z,97579.73
2023-01-18T07:30:58.188Z,97585.02
2023-01-18T07:33:25.245Z,97591.80
2023-01-18T07:35:55.156Z,97580.13
2023-01-18T07:38:22.430Z,97569.44
2023-01-18T07:40:49.850Z,97564.45
2023-01-18T07:43:18.128Z,97566.45
2023-01-18T07:45:46.962Z,97558.73
2023-01-18T07:48:14.142Z,97561.41
2023-01-18T07:50:41.315Z,97559.97
2023-01-18T07:53:09.528Z,97559.23
2023-01-18T07:55:38.923Z,97563.66
2023-01-18T07:58:06.095Z,97563.45
2023-01-18T08:00:34.890Z,97565.27
2023-01-18T08:03:02.344Z,97562.27
2023-01-18T08:05:30.013Z,97556.39
2023-01-18T08:07:58.051Z,97557.39
2023-01-18T08:10:26.686Z,97552.14
2023-01-18T08:12:54.139Z,97542.63
2023-01-18T08:15:21.298Z,97538.31
2023-01-18T08:17:51.220Z,97540.86
2023-01-18T08:20:20.994Z,97542.04
2023-01-18T08:22:55.496Z,97549.09
2023-01-18T08:25:22.762Z,97543.35
2023-01-18T08:27:50.001Z,97530.09
2023-01-18T08:30:20.055Z,97520.29
2023-01-18T08:32:47.332Z,97515.41
2023-01-18T08:35:14.697Z,97511.91
2023-01-18T08:37:41.798Z,97501.80
2023-01-18T08:40:11.189Z,97493.45
2023-01-18T08:42:38.330Z,97492.60
2023-01-18T08:45:05.743Z,97491.33
2023-01-18T08:47:33.241Z,97504.68
2023-01-18T08:50:00.205Z,97519.36
2023-01-18T08:52:28.159Z,97518.92
2023-01-18T08:54:55.763Z,97516.64
2023-01-18T08:57:23.382Z,97520.80
2023-01-18T08:59:51.287Z,97527.67
2023-01-18T09:02:18.601Z,97528.30
2023-01-18T09:04:48.829Z,97530.95
2023-01-18T09:07:15.997Z,97530.40
2023-01-18T09:09:43.533Z,97526.91
2023-01-18T09:12:11.613Z,97518.98
2023-01-18T09:14:38.764Z,97519.88
2023-01-18T09:17:06.014Z,97521.42
2023-01-18T09:19:33.269Z,97510.42
2023-01-18T09:22:00.356Z,97509.73
2023-01-18T09:24:27.881Z,97505.54
2023-01-18T09:26:55.444Z,97494.63
2023-01-18T09:29:22.751Z,97496.77
2023-01-18T09:31:50.393Z,97491.03
2023-01-18T09:34:19.983Z,97484.29
2023-01-18T09:36:47.740Z,97482.45
2023-01-18T09:39:15.075Z,97461.05
2023-01-18T09:41:44.477Z,97446.55
2023-01-18T09:44:23.206Z,97448.88
2023-01-18T09:46:54.509Z,97449.46
2023-01-18T09:49:28.474Z,97451.23
2023-01-18T09:52:05.589Z,97448.16
2023-01-18T09:54:43.341Z,97439.11
2023-01-18T09:57:18.370Z,97438.96
2023-01-18T09:59:55.663Z,97455.09
2023-01-18T10:02:27.244Z,97459.02
2023-01-18T10:05:00.653Z,97462.23
2023-01-18T10:07:31.765Z,97461.51
2023-01-18T10:10:02.486Z,97461.30
2023-01-18T10:12:39.114Z,97451.40
2023-01-18T10:15:17.510Z,97438.29
2023-01-18T10:17:46.314Z,97437.44
2023-01-18T10:20:22.022Z,97444.80
2023-01-18T10:22:54.648Z,97455.79
2023-01-18T10:25:32.080Z,97453.58
2023-01-18T10:28:17.394Z,97452.55
2023-01-18T10:30:57.466Z,97456.52
2023-01-18T10:33:27.226Z,97449.19
2023-01-18T10:35:58.497Z,97439.63
2023-01-18T10:38:29.414Z,97438.14
2023-01-18T10:41:00.798Z,97428.27
2023-01-18T10:43:30.166Z,97414.33
2023-01-18T10:45:57.394Z,97409.11
2023-01-18T10:48:31.146Z,97416.20
2023-01-18T10:51:00.350Z,97426.22
2023-01-18T10:53:33.882Z,97432.75
2023-01-18T10:56:05.169Z,97428.46
2023-01-18T10:58:36.248Z,97423.14
2023-01-18T11:01:04.770Z,97414.83
2023-01-18T11:03:38.389Z,97410.19
2023-01-18T11:06:08.379Z,97404.66
2023-01-18T11:08:37.013Z,97397.82
2023-01-18T11:11:07.537Z,97399.02
2023-01-18T11:13:42.678Z,97401.79
2023-01-18T11:16:14.081Z,97398.41
2023-01-18T11:18:55.711Z,97396.58
2023-01-18T11:21:23.928Z,97395.70
2023-01-18T11:23:52.614Z,97392.34
2023-01-18T11:26:22.738Z,97392.70
2023-01-18T11:28:57.040Z,97395.80
2023-01-18T11:31:27.642Z,97397.57
2023-01-18T11:33:57.809Z,97398.53
2023-01-18T11:36:38.798Z,97396.27
2023-01-18T11:39:20.532Z,97397.90
2023-01-18T11:41:48.909Z,97394.76
2023-01-18T11:44:24.003Z,97395.98
2023-01-18T11:46:55.029Z,97391.80
2023-01-18T11:49:35.983Z,97393.62
2023-01-18T11:52:06.404Z,97395.42
2023-01-18T11:54:40.847Z,97398.10
2023-01-18T11:57:10.413Z,97398.98
2023-01-18T11:59:42.687Z,97400.70
2023-01-18T12:02:40.497Z,97394.55
2023-01-18T12:05:30.985Z,97393.23
2023-01-18T12:08:13.100Z,97388.66
2023-01-18T12:10:51.732Z,97384.83
2023-01-18T12:13:34.124Z,97385.30
2023-01-18T12:16:12.517Z,97386.16
2023-01-18T12:19:18.190Z,97387.23
2023-01-18T12:22:02.087Z,97386.23
2023-01-18T12:24:46.071Z,97398.14
2023-01-18T12:27:24.477Z,97402.92
2023-01-18T12:30:03.743Z,97399.87
2023-01-18T12:32:45.126Z,97398.52
2023-01-18T12:35:28.888Z,97403.73
2023-01-18T12:38:07.149Z,97414.00
2023-01-18T12:40:46.340Z,97417.63
2023-01-18T12:43:26.323Z,97413.39
2023-01-18T12:46:00.497Z,97400.17
2023-01-18T12:48:31.977Z,97400.98
2023-01-18T12:51:00.532Z,97410.82
2023-01-18T12:53:39.535Z,97418.09
2023-01-18T12:56:15.054Z,97426.45
2023-01-18T12:58:44.274Z,97430.17
2023-01-18T13:01:15.623Z,97435.86
2023-01-18T13:03:46.565Z,97439.69
2023-01-18T13:06:14.332Z,97443.86
2023-01-18T13:08:45.660Z,97437.34
2023-01-18T13:11:18.362Z,97436.48
2023-01-18T13:13:48.568Z,97439.93
2023-01-18T13:16:29.526Z,97436.58
2023-01-18T13:19:01.148Z,97442.52
2023-01-18T13:21:43.355Z,97452.19
2023-01-18T13:24:20.351Z,97451.55
2023-01-18T13:26:47.941Z,97457.05
2023-01-18T13:29:24.144Z,97461.86
2023-01-18T13:31:52.053Z,97467.67
2023-01-18T13:34:29.776Z,97470.13
2023-01-18T13:37:13.275Z,97468.74
2023-01-18T13:39:48.282Z,97470.54
2023-01-18T13:42:35.645Z,97469.78
2023-01-18T13:45:20.913Z,97475.95
2023-01-18T13:47:54.847Z,97478.11
2023-01-18T13:50:52.863Z,97476.27
2023-01-18T13:53:28.986Z,97484.30
2023-01-18T13:56:33.403Z,97494.05
2023-01-18T13:59:18.815Z,97494.06
2023-01-18T14:01:49.986Z,97496.05
2023-01-18T14:04:30.172Z,97499.63
2023-01-18T14:06:59.819Z,97500.67
2023-01-18T14:09:42.756Z,97505.80
2023-01-18T14:12:11.800Z,97509.48
2023-01-18T14:14:56.423Z,97515.48
2023-01-18T14:17:25.318Z,97523.45
2023-01-18T14:20:38.552Z,97526.89
2023-01-18T14:23:24.995Z,97530.63
2023-01-18T14:26:00.115Z,97532.65
2023-01-18T14:28:36.315Z,97536.55
2023-01-18T14:31:06.099Z,97543.62
2023-01-18T14:33:37.215Z,97543.11
2023-01-18T14:36:08.654Z,97544.77
2023-01-18T14:38:36.673Z,97542.80
2023-01-18T14:41:10.082Z,97547.94
2023-01-18T14:43:42.349Z,97553.77
2023-01-18T14:46:12.790Z,97556.25
2023-01-18T14:48:48.315Z,97556.86
2023-01-18T14:51:20.304Z,97556.48
2023-01-18T14:53:52.943Z,97567.76
2023-01-18T14:56:23.324Z,97576.84
2023-01-18T14:58:56.463Z,97589.10
2023-01-18T15:01:32.635Z,97596.84
2023-01-18T15:04:02.062Z,97600.61
2023-01-18T15:06:41.395Z,97598.58
2023-01-18T15:09:10.909Z,97595.05
2023-01-18T15:11:39.931Z,97603.16
2023-01-18T15:14:13.332Z,97610.04
2023-01-18T15:16:41.808Z,97611.92
2023-01-18T15:19:17.078Z,97610.12
2023-01-18T15:21:46.098Z,97619.48
2023-01-18T15:24:18.851Z,97632.19
2023-01-18T15:26:51.436Z,97642.10
2023-01-18T15:29:20.995Z,97652.33
2023-01-18T15:31:51.882Z,97658.31
2023-01-18T15:34:22.689Z,97659.16
2023-01-18T15:36:50.220Z,97658.82
2023-01-18T15:39:17.331Z,97662.59
2023-01-18T15:41:45.992Z,97664.96
2023-01-18T15:44:32.413Z,97671.63
2023-01-18T15:46:59.667Z,97673.38
2023-01-18T15:49:26.976Z,97682.46
2023-01-18T15:51:56.578Z,97688.36
2023-01-18T15:54:26.853Z,97698.96
2023-01-18T15:56:55.387Z,97705.15
2023-01-18T15:59:25.203Z,97711.34
2023-01-18T16:04:46.021Z,97723.84
2023-01-18T16:07:38.264Z,97730.38
2023-01-18T16:10:28.407Z,97737.27
2023-01-18T16:12:57.957Z,97747.08
2023-01-18T16:15:31.049Z,97759.58
2023-01-18T16:18:04.508Z,97770.02
2023-01-18T16:20:33.895Z,97775.65
2023-01-18T16:23:09.071Z,97781.04
2023-01-18T16:25:37.405Z,97786.17
2023-01-18T16:28:05.842Z,97790.73
2023-01-18T16:30:35.810Z,97794.69
2023-01-18T16:33:11.442Z,97807.46
2023-01-18T16:35:40.038Z,97816.04
2023-01-18T16:38:10.828Z,97828.87
2023-01-18T16:40:40.874Z,97840.17
2023-01-18T16:43:20.205Z,97848.73
2023-01-18T16:45:48.907Z,97849.44
2023-01-18T16:48:18.462Z,97853.60
2023-01-18T16:50:46.136Z,97858.44
2023-01-18T16:53:14.536Z,97862.05
2023-01-18T16:55:44.167Z,97870.42
2023-01-18T16:58:13.374Z,97873.86
2023-01-18T17:00:49.749Z,97881.17
2023-01-18T17:03:16.814Z,97886.88
2023-01-18T17:05:43.862Z,97891.85
2023-01-18T17:08:13.660Z,97894.77
2023-01-18T17:10:43.215Z,97899.48
2023-01-18T17:13:10.897Z,97902.17
2023-01-18T17:15:41.951Z,97902.75
2023-01-18T17:18:11.716Z,97908.25
2023-01-18T17:20:38.919Z,97910.35
2023-01-18T17:23:06.374Z,97916.67
2023-01-18T17:25:33.432Z,97925.11
2023-01-18T17:28:01.077Z,97933.66
2023-01-18T17:30:28.935Z,97941.52
2023-01-18T17:32:57.436Z,97942.23
2023-01-18T17:35:28.023Z,97954.04
2023-01-18T17:38:04.611Z,97958.64
2023-01-18T17:40:39.993Z,97967.39
2023-01-18T17:43:09.129Z,97975.30
2023-01-18T17:45:36.588Z,97978.91
2023-01-18T17:48:04.121Z,97983.16
2023-01-18T17:50:31.203Z,97990.01
2023-01-18T17:52:58.603Z,97993.40
2023-01-18T17:55:34.275Z,98002.24
2023-01-18T17:58:01.798Z,98005.83
2023-01-18T18:00:29.053Z,98004.49
2023-01-18T18:02:57.972Z,98009.11
2023-01-18T18:05:26.626Z,98008.75
2023-01-18T18:07:54.050Z,98016.08
2023-01-18T18:10:21.438Z,98023.75
2023-01-18T18:12:48.740Z,98021.35
2023-01-18T18:15:15.954Z,98032.14
2023-01-18T18:17:42.993Z,98041.73
2023-01-18T18:20:12.565Z,98043.39
2023-01-18T18:22:39.865Z,98045.42
2023-01-18T18:25:08.523Z,98050.02
2023-01-18T18:27:45.368Z,98048.64
2023-01-18T18:30:14.868Z,98055.98
2023-01-18T18:32:42.157Z,98064.41
2023-01-18T18:35:26.753Z,98071.47
2023-01-18T18:37:55.735Z,98075.95
2023-01-18T18:40:22.928Z,98094.33
2023-01-18T18:43:01.156Z,98103.96
2023-01-18T18:45:29.337Z,98114.35
2023-01-18T18:47:56.882Z,98123.52
2023-01-18T18:50:23.977Z,98134.55
2023-01-18T18:52:51.423Z,98143.55
2023-01-18T18:55:19.179Z,98146.86
2023-01-18T18:57:46.333Z,98150.18
2023-01-18T19:00:16.549Z,98149.27
2023-01-18T19:02:43.867Z,98154.17
2023-01-18T19:05:12.214Z,98159.97
2023-01-18T19:07:42.535Z,98171.21
2023-01-18T19:10:11.671Z,98185.89
2023-01-18T19:12:38.856Z,98197.02
2023-01-18T19:15:06.734Z,98203.02
2023-01-18T19:17:33.906Z,98213.14
2023-01-18T19:20:00.986Z,98221.36
2023-01-18T19:22:28.254Z,98231.46
2023-01-18T19:24:55.602Z,98240.73
2023-01-18T19:27:24.700Z,98249.66
2023-01-18T19:29:53.489Z,98254.38
2023-01-18T19:32:21.089Z,98264.73
2023-01-18T19:34:48.091Z,98268.89
2023-01-18T19:37:15.258Z,98275.13
2023-01-18T19:39:42.418Z,98272.80
2023-01-18T19:42:09.549Z,98276.61
2023-01-18T19:44:36.621Z,98279.85
2023-01-18T19:47:03.664Z,98284.10
2023-01-18T19:49:31.240Z,98282.40
2023-01-18T19:51:58.771Z,98283.63
2023-01-18T19:54:26.207Z,98282.42
2023-01-18T19:56:53.435Z,98283.13
2023-01-18T19:59:20.598Z,98289.13
2023-01-18T20:01:47.758Z,98293.19
2023-01-18T20:04:15.494Z,98298.14
2023-01-18T20:06:45.237Z,98304.45
2023-01-18T20:09:27.112Z,98305.98
2023-01-18T20:11:59.253Z,98304.05
2023-01-18T20:14:40.404Z,98309.50
2023-01-18T20:17:08.906Z,98315.84
2023-01-18T20:19:36.383Z,98324.92
2023-01-18T20:22:03.994Z,98338.27
2023-01-18T20:24:31.241Z,98348.98
2023-01-18T20:27:15.056Z,98361.09
2023-01-18T20:29:45.495Z,98373.90
2023-01-18T20:32:16.803Z,98380.41
2023-01-18T20:34:47.189Z,98386.20
2023-01-18T20:37:15.239Z,98376.90
2023-01-18T20:39:42.300Z,98371.42
2023-01-18T20:42:11.794Z,98378.91
2023-01-18T20:44:38.829Z,98388.98
2023-01-18T20:47:06.579Z,98404.86
2023-01-18T20:49:38.858Z,98403.45
2023-01-18T20:52:06.864Z,98409.98
2023-01-18T20:54:35.968Z,98421.61
2023-01-18T20:57:03.780Z,98431.19
2023-01-18T20:59:30.797Z,98443.00
2023-01-18T21:01:58.634Z,98452.73
2023-01-18T21:04:28.002Z,98455.58
2023-01-18T21:06:57.419Z,98458.45
2023-01-18T21:09:24.706Z,98469.88
2023-01-18T21:11:51.890Z,98480.13
2023-01-18T21:14:19.082Z,98484.05
2023-01-18T21:16:46.748Z,98490.65
2023-01-18T21:19:14.165Z,98491.97
2023-01-18T21:21:42.001Z,98495.41
2023-01-18T21:24:09.850Z,98496.63
2023-01-18T21:26:37.969Z,98501.45
2023-01-18T21:29:05.527Z,98499.08
2023-01-18T21:31:32.971Z,98498.08
2023-01-18T21:34:00.340Z,98496.05
2023-01-18T21:36:27.548Z,98491.45
2023-01-18T21:38:55.342Z,98495.52
2023-01-18T21:41:40.722Z,98504.05
2023-01-18T21:44:25.901Z,98513.81
2023-01-18T21:46:54.463Z,98523.02
2023-01-18T21:50:10.948Z,98534.62
2023-01-18T21:52:47.220Z,98543.98
2023-01-18T21:55:15.531Z,98545.69
2023-01-18T21:57:42.861Z,98555.44
2023-01-18T22:00:12.533Z,98567.60
2023-01-18T22:02:40.244Z,98575.95
2023-01-18T22:05:09.945Z,98588.73
2023-01-18T22:07:37.070Z,98598.13
2023-01-18T22:10:07.000Z,98606.48
2023-01-18T22:12:36.176Z,98609.52
2023-01-18T22:15:04.557Z,98607.66
2023-01-18T22:17:31.992Z,98600.30
2023-01-18T22:19:59.970Z,98611.40
2023-01-18T22:22:27.248Z,98618.27
2023-01-18T22:24:54.451Z,98619.34
2023-01-18T22:27:21.529Z,98612.70
2023-01-18T22:29:48.605Z,98608.41
2023-01-18T22:32:16.466Z,98614.25
2023-01-18T22:34:43.563Z,98621.61
2023-01-18T22:37:11.349Z,98630.55
2023-01-18T22:39:38.592Z,98639.96
2023-01-18T22:42:06.145Z,98644.59
2023-01-18T22:44:33.962Z,98648.06
2023-01-18T22:47:01.458Z,98644.83
2023-01-18T22:49:28.486Z,98648.23
2023-01-18T22:51:55.653Z,98646.81
2023-01-18T22:54:23.186Z,98647.17
2023-01-18T22:56:50.124Z,98649.23
2023-01-18T22:59:17.368Z,98654.38
2023-01-18T23:01:44.634Z,98661.21
2023-01-18T23:04:12.342Z,98669.90
2023-01-18T23:06:48.165Z,98670.90
2023-01-18T23:09:15.850Z,98666.80
2023-01-18T23:11:43.301Z,98668.48
2023-01-18T23:14:28.491Z,98672.73
2023-01-18T23:17:13.119Z,98674.58
2023-01-18T23:19:40.677Z,98678.30
2023-01-18T23:22:08.068Z,98680.70
2023-01-18T23:24:35.984Z,98693.16
2023-01-18T23:27:03.655Z,98697.09
2023-01-18T23:29:31.261Z,98705.98
2023-01-18T23:31:58.718Z,98713.86
2023-01-18T23:34:26.031Z,98710.45
2023-01-18T23:36:53.751Z,98707.58
2023-01-18T23:39:39.658Z,98711.00
2023-01-18T23:42:24.538Z,98722.84
2023-01-18T23:45:09.628Z,98735.20
2023-01-18T23:47:55.605Z,98753.36
2023-01-18T23:50:40.295Z,98754.55
2023-01-18T23:53:29.120Z,98753.38
2023-01-18T23:55:56.441Z,98765.20
2023-01-18T23:58:24.143Z,98776.38
